createdAt,value
2019-03-31T00:02:08.681Z,110.53
2019-03-31T00:04:37.460Z,117.53
2019-03-31T00:07:06.398Z,111.23
2019-03-31T00:09:35.276Z,109.47
2019-03-31T00:12:04.085Z,102.27
2019-03-31T00:14:32.794Z,110.87
2019-03-31T00:17:01.630Z,108.73
2019-03-31T00:19:30.396Z,103.17
2019-03-31T00:21:59.255Z,109.37
2019-03-31T00:24:27.996Z,116.63
2019-03-31T00:26:56.653Z,122.90
2019-03-31T00:29:25.442Z,118.90
2019-03-31T00:31:54.220Z,120.83
2019-03-31T00:34:22.966Z,124.27
2019-03-31T00:36:54.007Z,119.37
2019-03-31T00:39:22.677Z,133.53
2019-03-31T00:41:52.538Z,130.93
2019-03-31T00:44:21.310Z,115.97
2019-03-31T00:46:50.282Z,129.50
2019-03-31T00:49:19.087Z,121.03
2019-03-31T00:51:47.774Z,116.93
2019-03-31T00:54:16.537Z,120.10
2019-03-31T00:56:45.290Z,120.97
2019-03-31T00:59:14.220Z,112.97
2019-03-31T01:01:44.947Z,117.53
2019-03-31T01:04:15.672Z,113.47
2019-03-31T01:06:45.468Z,111.53
2019-03-31T01:09:26.680Z,111.60
2019-03-31T01:11:59.048Z,112.80
2019-03-31T01:14:29.824Z,113.60
2019-03-31T01:17:00.618Z,123.97
2019-03-31T01:19:30.068Z,117.97
2019-03-31T01:21:58.811Z,123.00
2019-03-31T01:24:27.809Z,117.80
2019-03-31T01:26:56.614Z,115.73
2019-03-31T01:29:28.516Z,121.07
2019-03-31T01:31:57.476Z,112.13
2019-03-31T01:34:26.234Z,117.00
2019-03-31T01:36:55.132Z,110.33
2019-03-31T01:39:25.075Z,109.60
2019-03-31T01:41:53.727Z,110.97
2019-03-31T01:44:22.552Z,112.13
2019-03-31T01:46:51.261Z,112.50
2019-03-31T01:49:19.951Z,116.23
2019-03-31T01:51:48.651Z,115.87
2019-03-31T01:54:18.128Z,117.67
2019-03-31T01:56:46.795Z,110.70
2019-03-31T01:59:15.828Z,106.13
2019-03-31T02:01:48.490Z,106.60
2019-03-31T02:04:19.862Z,108.93
2019-03-31T02:06:48.610Z,109.77
2019-03-31T02:09:17.284Z,111.70
2019-03-31T02:11:46.056Z,101.97
2019-03-31T02:14:14.858Z,105.43
2019-03-31T02:16:43.478Z,100.57
2019-03-31T02:19:12.162Z,106.50
2019-03-31T02:21:40.971Z,109.27
2019-03-31T02:24:09.657Z,108.17
2019-03-31T02:26:38.421Z,104.97
2019-03-31T02:29:07.118Z,105.50
2019-03-31T02:31:35.813Z,104.47
2019-03-31T02:34:04.613Z,105.40
2019-03-31T02:36:33.161Z,106.77
2019-03-31T02:39:01.904Z,120.23
2019-03-31T02:41:30.859Z,108.27
2019-03-31T02:43:59.703Z,101.50
2019-03-31T02:46:28.395Z,105.43
2019-03-31T02:48:56.950Z,115.10
2019-03-31T02:51:26.155Z,115.83
2019-03-31T02:53:55.033Z,111.50
2019-03-31T02:56:24.453Z,109.27
2019-03-31T02:58:54.962Z,109.93
2019-03-31T03:01:26.197Z,107.67
2019-03-31T03:03:55.881Z,107.43
2019-03-31T03:06:27.593Z,116.17
2019-03-31T03:08:57.061Z,105.83
2019-03-31T03:11:28.535Z,102.47
2019-03-31T03:13:59.159Z,103.13
2019-03-31T03:16:27.853Z,103.70
2019-03-31T03:18:56.956Z,102.37
2019-03-31T03:21:25.696Z,110.20
2019-03-31T03:23:55.527Z,103.73
2019-03-31T03:26:24.262Z,100.50
2019-03-31T03:28:53.342Z,104.40
2019-03-31T03:31:22.006Z,107.97
2019-03-31T03:33:50.942Z,105.47
2019-03-31T03:36:19.663Z,108.23
2019-03-31T03:38:48.484Z,99.30
2019-03-31T03:41:17.448Z,109.67
2019-03-31T03:43:54.945Z,102.43
2019-03-31T03:46:16.814Z,99.43
2019-03-31T03:48:45.450Z,101.80
2019-03-31T03:51:14.225Z,103.43
2019-03-31T03:53:43.151Z,94.80
2019-03-31T03:56:11.891Z,102.57
2019-03-31T03:58:40.767Z,96.83
2019-03-31T04:01:13.914Z,94.03
2019-03-31T04:03:42.844Z,94.43
2019-03-31T04:06:11.509Z,94.47
2019-03-31T04:08:40.249Z,99.53
2019-03-31T04:11:15.155Z,95.53
2019-03-31T04:13:44.095Z,94.37
2019-03-31T04:16:12.772Z,96.57
2019-03-31T04:18:41.570Z,92.10
2019-03-31T04:21:10.302Z,103.77
2019-03-31T04:23:39.088Z,88.17
2019-03-31T04:26:07.762Z,88.73
2019-03-31T04:28:36.583Z,89.63
2019-03-31T04:31:05.445Z,95.67
2019-03-31T04:33:49.743Z,93.27
2019-03-31T04:36:05.030Z,89.97
2019-03-31T04:38:33.881Z,89.37
2019-03-31T04:41:02.625Z,86.93
2019-03-31T04:43:31.464Z,90.33
2019-03-31T04:46:00.162Z,87.17
2019-03-31T04:48:29.039Z,92.20
2019-03-31T04:50:57.743Z,87.27
2019-03-31T04:53:26.375Z,87.60
2019-03-31T04:55:55.253Z,89.87
2019-03-31T04:58:23.950Z,86.10
2019-03-31T05:00:52.591Z,89.23
2019-03-31T05:03:21.355Z,89.87
2019-03-31T05:05:50.085Z,95.37
2019-03-31T05:08:18.685Z,84.17
2019-03-31T05:10:47.411Z,83.17
2019-03-31T05:13:16.164Z,92.27
2019-03-31T05:15:45.046Z,83.60
2019-03-31T05:18:13.773Z,85.33
2019-03-31T05:20:42.493Z,75.60
2019-03-31T05:23:11.466Z,73.97
2019-03-31T05:25:40.043Z,85.40
2019-03-31T05:28:08.768Z,76.53
2019-03-31T05:30:37.368Z,69.37
2019-03-31T05:33:07.618Z,74.87
2019-03-31T05:35:36.291Z,65.47
2019-03-31T05:38:05.095Z,65.93
2019-03-31T05:40:33.914Z,64.07
2019-03-31T05:43:02.617Z,69.20
2019-03-31T05:45:31.389Z,66.57
2019-03-31T05:48:00.001Z,69.32
2019-03-31T05:50:28.683Z,69.50
2019-03-31T05:52:57.439Z,63.00
2019-03-31T05:55:26.232Z,63.42
2019-03-31T05:57:54.838Z,64.20
2019-03-31T06:00:32.878Z,64.42
2019-03-31T06:03:01.469Z,61.75
2019-03-31T06:05:30.222Z,62.48
2019-03-31T06:07:58.884Z,59.42
2019-03-31T06:10:28.135Z,60.15
2019-03-31T06:12:56.970Z,61.10
2019-03-31T06:15:25.718Z,62.17
2019-03-31T06:17:54.610Z,57.62
2019-03-31T06:20:23.334Z,59.18
2019-03-31T06:22:52.001Z,62.17
2019-03-31T06:25:20.623Z,56.02
2019-03-31T06:27:49.421Z,57.90
2019-03-31T06:30:18.129Z,61.23
2019-03-31T06:32:46.930Z,63.13
2019-03-31T06:35:15.700Z,53.78
2019-03-31T06:37:44.404Z,56.85
2019-03-31T06:40:13.218Z,56.30
2019-03-31T06:42:41.926Z,53.75
2019-03-31T06:45:12.156Z,54.23
2019-03-31T06:47:41.019Z,52.73
2019-03-31T06:50:10.393Z,55.95
2019-03-31T06:52:39.086Z,52.95
2019-03-31T06:55:08.724Z,51.00
2019-03-31T06:57:37.386Z,48.23
2019-03-31T07:00:08.088Z,47.95
2019-03-31T07:02:36.870Z,47.25
2019-03-31T07:05:07.432Z,47.53
2019-03-31T07:07:36.307Z,49.42
2019-03-31T07:10:07.521Z,48.33
2019-03-31T07:12:37.811Z,46.58
2019-03-31T07:15:09.784Z,43.35
2019-03-31T07:17:38.664Z,42.85
2019-03-31T07:20:09.206Z,46.25
2019-03-31T07:22:38.122Z,49.38
2019-03-31T07:25:08.586Z,47.73
2019-03-31T07:27:42.504Z,41.85
2019-03-31T07:30:19.583Z,42.93
2019-03-31T07:32:48.362Z,40.15
2019-03-31T07:35:20.589Z,42.93
2019-03-31T07:37:49.398Z,45.95
2019-03-31T07:40:22.599Z,43.63
2019-03-31T07:42:51.659Z,42.38
2019-03-31T07:45:20.426Z,43.23
2019-03-31T07:47:49.624Z,40.48
2019-03-31T07:50:28.267Z,38.38
2019-03-31T07:52:57.811Z,39.13
2019-03-31T07:55:29.734Z,43.30
2019-03-31T07:57:59.996Z,40.40
2019-03-31T08:00:28.725Z,39.30
2019-03-31T08:03:00.119Z,64.03
2019-03-31T08:05:33.359Z,40.33
2019-03-31T08:07:58.331Z,41.90
2019-03-31T08:10:27.094Z,38.60
2019-03-31T08:12:56.087Z,35.28
2019-03-31T08:15:25.104Z,39.88
2019-03-31T08:17:53.876Z,37.08
2019-03-31T08:20:22.688Z,33.63
2019-03-31T08:22:51.371Z,38.02
2019-03-31T08:25:21.965Z,35.43
2019-03-31T08:27:50.621Z,34.25
2019-03-31T08:30:19.772Z,38.78
2019-03-31T08:32:48.667Z,36.17
2019-03-31T08:35:20.135Z,36.58
2019-03-31T08:37:48.781Z,36.10
2019-03-31T08:40:18.174Z,33.20
2019-03-31T08:42:46.948Z,37.00
2019-03-31T08:45:16.163Z,33.28
2019-03-31T08:47:45.032Z,32.85
2019-03-31T08:50:14.159Z,34.23
2019-03-31T08:52:43.030Z,33.13
2019-03-31T08:55:16.080Z,34.38
2019-03-31T08:57:44.886Z,35.05
2019-03-31T09:00:17.027Z,35.85
2019-03-31T09:02:58.741Z,33.50
2019-03-31T09:05:34.574Z,33.90
2019-03-31T09:08:06.591Z,35.98
2019-03-31T09:10:37.975Z,34.33
2019-03-31T09:13:09.529Z,34.35
2019-03-31T09:15:44.576Z,36.28
2019-03-31T09:18:18.028Z,36.08
2019-03-31T09:20:47.162Z,42.00
2019-03-31T09:23:16.979Z,34.15
2019-03-31T09:25:49.872Z,41.70
2019-03-31T09:28:18.752Z,38.23
2019-03-31T09:30:53.791Z,39.83
2019-03-31T09:33:22.850Z,40.83
2019-03-31T09:35:54.740Z,39.42
2019-03-31T09:38:23.422Z,37.63
2019-03-31T09:40:52.133Z,39.95
2019-03-31T09:43:21.109Z,40.35
2019-03-31T09:45:49.828Z,43.85
2019-03-31T09:48:18.618Z,38.80
2019-03-31T09:50:47.391Z,40.25
2019-03-31T09:53:16.132Z,33.02
2019-03-31T09:55:44.809Z,33.48
2019-03-31T09:58:13.583Z,32.23
2019-03-31T10:00:51.010Z,35.40
2019-03-31T10:03:26.043Z,38.42
2019-03-31T10:06:04.434Z,42.25
2019-03-31T10:08:26.950Z,34.60
2019-03-31T10:10:55.699Z,35.20
2019-03-31T10:13:24.511Z,35.90
2019-03-31T10:15:53.368Z,38.65
2019-03-31T10:18:22.404Z,40.45
2019-03-31T10:20:52.802Z,38.40
2019-03-31T10:23:24.423Z,35.58
2019-03-31T10:25:53.099Z,37.90
2019-03-31T10:28:21.703Z,40.28
2019-03-31T10:30:50.598Z,37.30
2019-03-31T10:33:19.294Z,42.65
2019-03-31T10:35:48.336Z,37.35
2019-03-31T10:38:17.201Z,33.80
2019-03-31T10:40:46.123Z,35.35
2019-03-31T10:43:14.736Z,36.20
2019-03-31T10:45:43.527Z,34.85
2019-03-31T10:48:20.310Z,36.17
2019-03-31T10:50:42.555Z,34.53
2019-03-31T10:53:11.289Z,36.50
2019-03-31T10:55:39.917Z,35.78
2019-03-31T10:58:08.787Z,34.40
2019-03-31T11:00:44.174Z,31.87
2019-03-31T11:03:11.317Z,32.75
2019-03-31T11:05:40.044Z,33.73
2019-03-31T11:08:08.902Z,31.35
2019-03-31T11:10:37.715Z,32.35
2019-03-31T11:13:06.666Z,36.53
2019-03-31T11:15:35.425Z,30.50
2019-03-31T11:18:04.803Z,30.88
2019-03-31T11:20:33.498Z,31.33
2019-03-31T11:23:21.796Z,31.52
2019-03-31T11:25:50.709Z,36.17
2019-03-31T11:28:19.488Z,33.58
2019-03-31T11:30:48.141Z,35.92
2019-03-31T11:33:16.901Z,33.90
2019-03-31T11:35:45.754Z,38.42
2019-03-31T11:38:14.336Z,33.70
2019-03-31T11:40:43.091Z,34.95
2019-03-31T11:43:11.927Z,33.60
2019-03-31T11:45:40.839Z,33.02
2019-03-31T11:48:09.625Z,40.08
2019-03-31T11:50:38.303Z,39.35
2019-03-31T11:53:07.145Z,36.83
2019-03-31T11:55:35.760Z,39.13
2019-03-31T11:58:05.016Z,39.25
2019-03-31T12:00:35.547Z,34.95
2019-03-31T12:03:05.288Z,38.55
2019-03-31T12:05:34.035Z,42.83
2019-03-31T12:08:02.791Z,43.60
2019-03-31T12:10:31.512Z,44.38
2019-03-31T12:13:00.244Z,44.83
2019-03-31T12:15:28.857Z,43.42
2019-03-31T12:17:57.612Z,45.88
2019-03-31T12:20:26.469Z,42.53
2019-03-31T12:22:56.937Z,40.80
2019-03-31T12:25:26.846Z,41.30
2019-03-31T12:27:55.477Z,40.25
2019-03-31T12:30:27.911Z,44.70
2019-03-31T12:32:59.919Z,45.83
2019-03-31T12:35:28.693Z,46.08
2019-03-31T12:37:57.456Z,44.70
2019-03-31T12:40:31.341Z,45.73
2019-03-31T12:43:00.216Z,40.80
2019-03-31T12:45:28.790Z,43.15
2019-03-31T12:48:00.875Z,44.70
2019-03-31T12:50:28.032Z,41.95
2019-03-31T12:52:56.938Z,44.80
2019-03-31T12:55:25.726Z,42.45
2019-03-31T12:57:55.362Z,43.87
2019-03-31T13:00:24.110Z,41.45
2019-03-31T13:02:52.920Z,40.65
2019-03-31T13:05:21.642Z,44.77
2019-03-31T13:07:56.711Z,39.83
2019-03-31T13:10:23.015Z,46.05
2019-03-31T13:12:55.877Z,39.75
2019-03-31T13:15:24.046Z,39.67
2019-03-31T13:17:52.873Z,43.38
2019-03-31T13:20:22.007Z,44.03
2019-03-31T13:22:52.515Z,41.45
2019-03-31T13:25:21.258Z,41.10
2019-03-31T13:27:50.250Z,41.77
2019-03-31T13:30:22.439Z,43.08
2019-03-31T13:32:51.455Z,43.55
2019-03-31T13:35:24.322Z,40.00
2019-03-31T13:38:10.473Z,43.05
2019-03-31T13:40:32.371Z,40.33
2019-03-31T13:43:01.619Z,39.45
2019-03-31T13:45:30.586Z,42.13
2019-03-31T13:48:04.104Z,39.92
2019-03-31T13:50:33.030Z,40.92
2019-03-31T13:53:02.174Z,42.38
2019-03-31T13:55:30.820Z,43.70
2019-03-31T13:58:03.602Z,43.15
2019-03-31T14:00:38.911Z,44.63
2019-03-31T14:03:08.515Z,38.45
2019-03-31T14:05:37.433Z,41.60
2019-03-31T14:08:06.573Z,42.83
2019-03-31T14:10:35.467Z,46.53
2019-03-31T14:13:05.069Z,44.63
2019-03-31T14:15:33.889Z,40.60
2019-03-31T14:18:02.689Z,39.40
2019-03-31T14:20:31.551Z,40.73
2019-03-31T14:23:00.414Z,41.25
2019-03-31T14:25:29.373Z,47.77
2019-03-31T14:27:58.020Z,39.90
2019-03-31T14:30:26.684Z,41.02
2019-03-31T14:32:55.486Z,37.78
2019-03-31T14:35:24.404Z,37.47
2019-03-31T14:37:53.188Z,34.03
2019-03-31T14:40:21.915Z,35.33
2019-03-31T14:42:50.653Z,30.52
2019-03-31T14:45:33.255Z,29.95
2019-03-31T14:48:02.188Z,31.30
2019-03-31T14:50:33.260Z,26.12
2019-03-31T14:53:02.070Z,25.67
2019-03-31T14:55:31.096Z,27.00
2019-03-31T14:58:01.466Z,22.57
2019-03-31T15:00:30.203Z,22.20
2019-03-31T15:02:58.914Z,22.73
2019-03-31T15:05:27.726Z,17.07
2019-03-31T15:07:58.444Z,20.03
2019-03-31T15:10:28.484Z,19.70
2019-03-31T15:12:57.549Z,20.37
2019-03-31T15:15:26.420Z,18.50
2019-03-31T15:17:56.636Z,17.90
2019-03-31T15:20:25.861Z,21.85
2019-03-31T15:22:54.652Z,23.93
2019-03-31T15:25:26.454Z,22.10
2019-03-31T15:27:55.216Z,19.73
2019-03-31T15:30:26.815Z,18.20
2019-03-31T15:32:55.398Z,20.10
2019-03-31T15:35:24.516Z,16.43
2019-03-31T15:37:53.478Z,16.40
2019-03-31T15:40:22.253Z,17.90
2019-03-31T15:42:51.133Z,17.17
2019-03-31T15:45:19.738Z,14.73
2019-03-31T15:47:48.720Z,15.87
2019-03-31T15:50:17.861Z,13.60
2019-03-31T15:52:46.603Z,18.37
2019-03-31T15:55:15.484Z,12.47
2019-03-31T15:57:44.313Z,17.87
2019-03-31T16:00:13.927Z,12.20
2019-03-31T16:02:42.722Z,16.77
2019-03-31T16:05:12.851Z,13.67
2019-03-31T16:07:43.519Z,9.47
2019-03-31T16:10:12.445Z,9.93
2019-03-31T16:12:41.260Z,11.27
2019-03-31T16:15:14.147Z,12.87
2019-03-31T16:17:43.033Z,11.03
2019-03-31T16:20:12.090Z,9.93
2019-03-31T16:22:40.989Z,9.83
2019-03-31T16:25:28.662Z,11.00
2019-03-31T16:27:57.096Z,13.17
2019-03-31T16:30:26.004Z,10.20
2019-03-31T16:32:54.834Z,13.17
2019-03-31T16:35:23.866Z,9.07
2019-03-31T16:37:52.662Z,12.00
2019-03-31T16:40:21.616Z,7.37
2019-03-31T16:42:50.434Z,8.23
2019-03-31T16:45:19.153Z,10.90
2019-03-31T16:47:47.937Z,11.27
2019-03-31T16:50:17.157Z,7.70
2019-03-31T16:52:45.811Z,9.90
2019-03-31T16:55:14.714Z,11.07
2019-03-31T16:57:43.929Z,9.43
2019-03-31T17:00:13.613Z,7.57
2019-03-31T17:02:42.248Z,9.13
2019-03-31T17:05:21.652Z,12.90
2019-03-31T17:07:42.044Z,9.60
2019-03-31T17:10:18.699Z,8.40
2019-03-31T17:12:47.510Z,7.70
2019-03-31T17:15:16.421Z,7.73
2019-03-31T17:17:45.092Z,10.73
2019-03-31T17:20:14.481Z,6.07
2019-03-31T17:22:43.175Z,8.07
2019-03-31T17:25:12.356Z,7.77
2019-03-31T17:27:41.437Z,7.83
2019-03-31T17:30:10.884Z,14.67
2019-03-31T17:32:40.046Z,8.40
2019-03-31T17:35:08.905Z,7.50
2019-03-31T17:37:37.670Z,9.30
2019-03-31T17:40:08.316Z,6.90
2019-03-31T17:42:37.080Z,7.70
2019-03-31T17:45:07.359Z,7.13
2019-03-31T17:47:37.926Z,10.23
2019-03-31T17:50:06.933Z,13.80
2019-03-31T17:52:35.903Z,13.13
2019-03-31T17:55:07.627Z,8.63
2019-03-31T17:57:36.460Z,9.13
2019-03-31T18:00:10.101Z,8.43
2019-03-31T18:02:38.881Z,11.63
2019-03-31T18:05:09.199Z,6.03
2019-03-31T18:07:37.813Z,15.43
2019-03-31T18:10:19.975Z,6.73
2019-03-31T18:12:37.888Z,6.20
2019-03-31T18:15:07.358Z,9.33
2019-03-31T18:17:36.070Z,6.40
2019-03-31T18:20:06.389Z,9.57
2019-03-31T18:22:35.149Z,8.00
2019-03-31T18:25:05.097Z,9.90
2019-03-31T18:27:36.911Z,7.70
2019-03-31T18:30:06.884Z,10.40
2019-03-31T18:32:35.684Z,7.50
2019-03-31T18:35:06.327Z,8.73
2019-03-31T18:37:35.008Z,8.90
2019-03-31T18:40:04.996Z,9.60
2019-03-31T18:42:33.989Z,12.40
2019-03-31T18:45:02.685Z,8.93
2019-03-31T18:47:31.286Z,8.03
2019-03-31T18:50:00.051Z,8.43
2019-03-31T18:52:28.893Z,9.10
2019-03-31T18:55:02.288Z,13.77
2019-03-31T18:57:41.617Z,7.63
2019-03-31T19:00:12.627Z,10.50
2019-03-31T19:02:49.260Z,9.70
2019-03-31T19:05:35.793Z,9.00
2019-03-31T19:08:06.336Z,8.73
2019-03-31T19:10:48.856Z,7.57
2019-03-31T19:13:11.563Z,8.37
2019-03-31T19:15:50.710Z,10.00
2019-03-31T19:18:23.780Z,10.77
2019-03-31T19:21:11.726Z,7.90
2019-03-31T19:23:42.461Z,8.00
2019-03-31T19:26:21.777Z,9.27
2019-03-31T19:29:00.999Z,6.73
2019-03-31T19:31:37.594Z,11.90
2019-03-31T19:34:08.002Z,9.20
2019-03-31T19:36:41.338Z,10.73
2019-03-31T19:39:18.298Z,10.20
2019-03-31T19:42:02.964Z,10.80
2019-03-31T19:44:49.598Z,11.83
2019-03-31T19:47:28.739Z,6.90
2019-03-31T19:49:59.284Z,10.27
2019-03-31T19:52:38.689Z,8.40
2019-03-31T19:55:15.173Z,11.60
2019-03-31T19:57:51.066Z,8.80
2019-03-31T20:00:30.405Z,12.53
2019-03-31T20:03:06.540Z,10.83
2019-03-31T20:05:55.144Z,10.47
2019-03-31T20:08:42.306Z,11.40
2019-03-31T20:11:16.325Z,10.47
2019-03-31T20:13:46.663Z,8.73
2019-03-31T20:16:16.942Z,11.40
2019-03-31T20:18:47.217Z,11.13
2019-03-31T20:21:32.746Z,17.37
2019-03-31T20:24:03.003Z,22.03
2019-03-31T20:26:49.766Z,12.23
2019-03-31T20:29:23.084Z,11.97
2019-03-31T20:32:02.250Z,13.87
2019-03-31T20:34:32.702Z,12.97
2019-03-31T20:37:09.373Z,15.77
2019-03-31T20:39:56.411Z,12.07
2019-03-31T20:42:29.823Z,13.83
2019-03-31T20:44:58.496Z,11.03
2019-03-31T20:47:27.264Z,8.97
2019-03-31T20:49:57.564Z,10.97
2019-03-31T20:52:26.322Z,12.47
2019-03-31T20:55:15.574Z,8.27
2019-03-31T20:57:36.459Z,7.30
2019-03-31T21:00:08.034Z,8.40
2019-03-31T21:02:36.738Z,5.80
2019-03-31T21:05:07.808Z,8.83
2019-03-31T21:07:36.679Z,11.23
2019-03-31T21:10:07.335Z,8.33
2019-03-31T21:12:36.103Z,13.13
2019-03-31T21:15:06.999Z,9.87
2019-03-31T21:17:35.825Z,10.20
2019-03-31T21:20:06.022Z,6.97
2019-03-31T21:22:35.418Z,10.03
2019-03-31T21:25:07.882Z,10.97
2019-03-31T21:27:38.421Z,8.93
2019-03-31T21:30:07.840Z,13.47
2019-03-31T21:32:39.648Z,8.60
2019-03-31T21:35:11.765Z,5.77
2019-03-31T21:37:41.977Z,9.30
2019-03-31T21:40:12.642Z,3.97
2019-03-31T21:42:41.345Z,7.13
2019-03-31T21:45:13.822Z,11.03
2019-03-31T21:47:42.872Z,9.37
2019-03-31T21:50:16.583Z,7.20
2019-03-31T21:52:45.291Z,9.33
2019-03-31T21:55:14.336Z,5.70
2019-03-31T21:57:43.740Z,8.00
2019-03-31T22:00:16.367Z,7.33
2019-03-31T22:02:46.764Z,8.30
2019-03-31T22:05:15.642Z,15.40
2019-03-31T22:07:44.741Z,9.23
2019-03-31T22:10:13.933Z,8.63
2019-03-31T22:12:45.682Z,9.40
2019-03-31T22:15:17.670Z,7.80
2019-03-31T22:17:46.753Z,5.90
2019-03-31T22:20:18.139Z,9.03
2019-03-31T22:22:46.854Z,12.17
2019-03-31T22:25:18.779Z,6.10
2019-03-31T22:27:50.167Z,8.60
2019-03-31T22:30:18.868Z,11.07
2019-03-31T22:32:49.117Z,10.63
2019-03-31T22:35:17.776Z,13.97
2019-03-31T22:37:46.518Z,12.00
2019-03-31T22:40:15.252Z,8.27
2019-03-31T22:42:43.894Z,6.23
2019-03-31T22:45:12.718Z,7.57
2019-03-31T22:47:41.545Z,9.40
2019-03-31T22:50:10.498Z,10.23
2019-03-31T22:52:39.189Z,10.53
2019-03-31T22:55:07.850Z,12.70
2019-03-31T22:57:36.714Z,8.50
2019-03-31T23:00:08.576Z,15.00
2019-03-31T23:02:37.242Z,11.20
2019-03-31T23:05:06.027Z,8.00
2019-03-31T23:07:34.734Z,9.67
2019-03-31T23:10:04.274Z,7.33
2019-03-31T23:12:33.022Z,13.13
2019-03-31T23:15:01.708Z,14.70
2019-03-31T23:17:30.467Z,6.57
2019-03-31T23:19:59.113Z,11.67
2019-03-31T23:22:29.403Z,9.27
2019-03-31T23:24:58.101Z,11.20
2019-03-31T23:27:26.739Z,10.50
2019-03-31T23:29:55.392Z,13.20
2019-03-31T23:32:24.083Z,7.97
2019-03-31T23:34:52.919Z,10.80
2019-03-31T23:37:21.645Z,7.10
2019-03-31T23:39:50.243Z,12.23
2019-03-31T23:42:18.943Z,7.50
2019-03-31T23:44:47.879Z,13.13
2019-03-31T23:47:16.881Z,8.77
2019-03-31T23:49:54.017Z,10.07
2019-03-31T23:52:23.030Z,13.67
2019-03-31T23:54:52.914Z,10.37
2019-03-31T23:57:24.533Z,11.73
2019-03-31T23:59:56.969Z,8.60
